createdAt,value
2023-05-19T00:01:20.733Z,84.88
2023-05-19T00:05:33.823Z,86.27
2023-05-19T00:09:47.031Z,87.00
2023-05-19T00:14:01.081Z,86.85
2023-05-19T00:18:14.370Z,86.83
2023-05-19T00:22:26.904Z,87.65
2023-05-19T00:26:39.370Z,86.79
2023-05-19T00:30:52.541Z,86.76
2023-05-19T00:35:05.302Z,86.51
2023-05-19T00:39:17.626Z,85.89
2023-05-19T00:43:34.669Z,87.36
2023-05-19T00:47:47.186Z,86.62
2023-05-19T00:52:01.842Z,87.39
2023-05-19T00:56:15.957Z,87.15
2023-05-19T01:00:28.606Z,87.56
2023-05-19T01:04:42.129Z,83.93
2023-05-19T01:08:54.824Z,82.92
2023-05-19T01:13:08.370Z,82.70
2023-05-19T01:17:27.501Z,84.28
2023-05-19T01:22:07.850Z,85.88
2023-05-19T01:26:35.327Z,86.96
2023-05-19T01:30:54.854Z,86.87
2023-05-19T01:35:09.729Z,83.47
2023-05-19T01:39:23.490Z,84.41
2023-05-19T01:43:36.500Z,84.23
2023-05-19T01:47:53.789Z,83.30
2023-05-19T01:52:07.492Z,82.78
2023-05-19T01:56:33.452Z,84.41
2023-05-19T02:00:54.399Z,84.72
2023-05-19T02:05:38.091Z,82.15
2023-05-19T02:10:06.464Z,81.31
2023-05-19T02:14:25.919Z,81.29
2023-05-19T02:18:38.330Z,82.48
2023-05-19T02:22:52.545Z,83.24
2023-05-19T02:27:05.303Z,81.96
2023-05-19T02:31:17.781Z,81.77
2023-05-19T02:35:30.294Z,82.97
2023-05-19T02:39:43.212Z,81.35
2023-05-19T02:43:56.053Z,82.28
2023-05-19T02:48:08.739Z,83.34
2023-05-19T02:52:21.440Z,84.78
2023-05-19T02:56:34.017Z,84.18
2023-05-19T03:00:46.526Z,82.63
2023-05-19T03:04:58.891Z,80.63
2023-05-19T03:09:13.465Z,77.90
2023-05-19T03:13:26.021Z,78.79
2023-05-19T03:17:39.659Z,77.79
2023-05-19T03:21:55.847Z,76.72
2023-05-19T03:26:08.350Z,77.14
2023-05-19T03:30:21.033Z,77.15
2023-05-19T03:34:45.272Z,77.46
2023-05-19T03:38:59.029Z,76.45
2023-05-19T03:43:11.680Z,75.48
2023-05-19T03:47:32.537Z,74.71
2023-05-19T03:51:53.401Z,76.73
2023-05-19T03:56:18.415Z,77.04
2023-05-19T04:00:31.246Z,75.53
2023-05-19T04:04:43.759Z,75.09
2023-05-19T04:08:57.330Z,74.52
2023-05-19T04:13:09.976Z,74.52
2023-05-19T04:17:26.617Z,72.87
2023-05-19T04:21:40.251Z,71.06
2023-05-19T04:25:54.467Z,70.50
2023-05-19T04:30:07.615Z,70.04
2023-05-19T04:34:20.909Z,63.07
2023-05-19T04:38:33.767Z,52.95
2023-05-19T04:42:47.081Z,49.65
2023-05-19T04:47:00.489Z,47.24
2023-05-19T04:51:14.651Z,46.38
2023-05-19T04:55:27.412Z,45.37
2023-05-19T04:59:42.455Z,44.18
2023-05-19T05:03:59.210Z,49.16
2023-05-19T05:08:12.404Z,48.00
2023-05-19T05:12:28.422Z,46.66
2023-05-19T05:16:41.259Z,46.04
2023-05-19T05:21:00.202Z,46.04
2023-05-19T05:25:13.779Z,43.99
2023-05-19T05:29:26.526Z,45.39
2023-05-19T05:33:39.865Z,44.88
2023-05-19T05:37:53.383Z,44.88
2023-05-19T05:42:06.152Z,42.85
2023-05-19T05:46:18.874Z,41.96
2023-05-19T05:50:31.916Z,43.47
2023-05-19T05:54:44.797Z,41.92
2023-05-19T05:58:58.045Z,43.29
2023-05-19T06:03:12.371Z,41.62
2023-05-19T06:07:24.926Z,42.44
2023-05-19T06:11:37.832Z,43.47
2023-05-19T06:15:52.675Z,43.86
2023-05-19T06:20:10.928Z,42.12
2023-05-19T06:24:23.538Z,42.64
2023-05-19T06:28:36.133Z,40.75
2023-05-19T06:32:48.763Z,40.99
2023-05-19T06:37:02.701Z,40.36
2023-05-19T06:41:16.877Z,44.30
2023-05-19T06:45:29.585Z,43.80
2023-05-19T06:49:43.439Z,40.06
2023-05-19T06:53:55.909Z,41.32
2023-05-19T06:58:09.332Z,39.81
2023-05-19T07:02:21.828Z,39.70
2023-05-19T07:06:35.286Z,38.28
2023-05-19T07:10:48.269Z,37.37
2023-05-19T07:15:02.541Z,36.90
2023-05-19T07:19:15.377Z,37.81
2023-05-19T07:23:29.997Z,37.10
2023-05-19T07:27:42.390Z,37.61
2023-05-19T07:31:58.212Z,37.32
2023-05-19T07:36:10.798Z,39.40
2023-05-19T07:40:23.257Z,35.39
2023-05-19T07:44:35.678Z,37.06
2023-05-19T07:48:48.349Z,36.63
2023-05-19T07:53:00.720Z,35.92
2023-05-19T07:57:14.799Z,35.50
2023-05-19T08:01:27.331Z,37.17
2023-05-19T08:05:39.745Z,36.85
2023-05-19T08:09:52.246Z,36.80
2023-05-19T08:14:04.701Z,33.40
2023-05-19T08:18:17.054Z,33.07
2023-05-19T08:22:29.429Z,34.68
2023-05-19T08:26:42.079Z,34.71
2023-05-19T08:30:54.604Z,34.64
2023-05-19T08:35:07.926Z,34.87
2023-05-19T08:39:24.548Z,34.13
2023-05-19T08:43:37.399Z,33.42
2023-05-19T08:47:51.789Z,34.21
2023-05-19T08:52:36.073Z,33.37
2023-05-19T08:56:49.207Z,36.11
2023-05-19T09:01:04.507Z,36.03
2023-05-19T09:05:20.977Z,36.56
2023-05-19T09:09:33.483Z,36.65
2023-05-19T09:13:46.358Z,36.93
2023-05-19T09:18:17.687Z,37.51
2023-05-19T09:22:30.950Z,35.97
2023-05-19T09:26:43.820Z,35.07
2023-05-19T09:31:02.458Z,36.00
2023-05-19T09:35:17.524Z,35.39
2023-05-19T09:39:30.758Z,35.24
2023-05-19T09:43:43.182Z,35.43
2023-05-19T09:47:55.575Z,35.68
2023-05-19T09:52:10.066Z,35.09
2023-05-19T09:56:26.402Z,33.59
2023-05-19T10:00:39.695Z,34.15
2023-05-19T10:04:53.832Z,33.39
2023-05-19T10:09:06.748Z,33.59
2023-05-19T10:13:20.237Z,33.73
2023-05-19T10:17:34.696Z,35.30
2023-05-19T10:21:47.485Z,33.78
2023-05-19T10:26:02.296Z,34.86
2023-05-19T10:30:19.382Z,33.31
2023-05-19T10:34:59.491Z,32.23
2023-05-19T10:39:25.402Z,32.84
2023-05-19T10:44:22.305Z,32.08
2023-05-19T10:48:36.914Z,33.47
2023-05-19T10:52:58.642Z,31.81
2023-05-19T10:57:17.897Z,32.17
2023-05-19T11:01:33.549Z,30.86
2023-05-19T11:05:46.764Z,30.60
2023-05-19T11:09:59.136Z,31.01
2023-05-19T11:14:14.974Z,30.72
2023-05-19T11:18:27.415Z,32.30
2023-05-19T11:22:40.678Z,31.65
2023-05-19T11:26:55.310Z,31.37
2023-05-19T11:31:10.555Z,29.73
2023-05-19T11:35:24.649Z,30.71
2023-05-19T11:39:37.502Z,31.68
2023-05-19T11:43:50.002Z,32.11
2023-05-19T11:48:07.191Z,31.33
2023-05-19T11:52:23.303Z,31.72
2023-05-19T11:56:41.016Z,32.34
2023-05-19T12:00:54.517Z,30.63
2023-05-19T12:05:07.264Z,32.34
2023-05-19T12:09:22.716Z,31.62
2023-05-19T12:13:36.116Z,29.80
2023-05-19T12:17:56.942Z,30.09
2023-05-19T12:22:10.181Z,28.93
2023-05-19T12:26:23.028Z,31.53
2023-05-19T12:30:35.779Z,33.73
2023-05-19T12:34:48.482Z,35.01
2023-05-19T12:39:01.027Z,35.10
2023-05-19T12:43:23.441Z,35.97
2023-05-19T12:47:36.738Z,36.39
2023-05-19T12:51:53.777Z,36.90
2023-05-19T12:56:16.742Z,37.67
2023-05-19T13:00:31.318Z,35.77
2023-05-19T13:04:44.858Z,35.32
2023-05-19T13:08:57.484Z,36.90
2023-05-19T13:13:10.629Z,36.16
2023-05-19T13:17:24.121Z,34.10
2023-05-19T13:21:38.232Z,35.67
2023-05-19T13:25:51.783Z,36.59
2023-05-19T13:30:05.659Z,36.57
2023-05-19T13:34:20.271Z,36.50
2023-05-19T13:38:32.677Z,36.67
2023-05-19T13:42:45.718Z,36.46
2023-05-19T13:46:58.198Z,37.21
2023-05-19T13:51:10.710Z,37.17
2023-05-19T13:55:23.940Z,36.64
2023-05-19T13:59:45.711Z,37.27
2023-05-19T14:04:05.663Z,38.38
2023-05-19T14:08:19.213Z,38.64
2023-05-19T14:12:41.504Z,38.95
2023-05-19T14:16:59.843Z,39.31
2023-05-19T14:21:12.505Z,38.73
2023-05-19T14:25:24.917Z,39.64
2023-05-19T14:29:37.347Z,39.77
2023-05-19T14:33:49.842Z,38.90
2023-05-19T14:38:02.322Z,39.61
2023-05-19T14:42:15.007Z,39.80
2023-05-19T14:46:27.500Z,40.56
2023-05-19T14:50:39.981Z,40.77
2023-05-19T14:54:52.488Z,40.45
2023-05-19T14:59:05.191Z,41.02
2023-05-19T15:03:17.685Z,40.36
2023-05-19T15:07:30.219Z,41.25
2023-05-19T15:11:42.630Z,42.64
2023-05-19T15:16:08.445Z,42.50
2023-05-19T15:20:29.579Z,42.93
2023-05-19T15:24:42.178Z,43.83
2023-05-19T15:28:54.777Z,44.47
2023-05-19T15:33:07.402Z,46.06
2023-05-19T15:37:19.914Z,45.10
2023-05-19T15:41:32.376Z,45.46
2023-05-19T15:45:45.171Z,45.75
2023-05-19T15:49:57.697Z,46.36
2023-05-19T15:54:10.525Z,46.68
2023-05-19T15:58:22.987Z,47.04
2023-05-19T16:02:36.278Z,46.84
2023-05-19T16:06:48.792Z,46.83
2023-05-19T16:11:01.370Z,47.41
2023-05-19T16:15:13.786Z,49.60
2023-05-19T16:19:27.145Z,51.18
2023-05-19T16:23:39.718Z,51.60
2023-05-19T16:27:52.936Z,51.87
2023-05-19T16:32:05.920Z,52.76
2023-05-19T16:36:18.604Z,53.32
2023-05-19T16:40:31.235Z,53.28
2023-05-19T16:44:43.824Z,53.05
2023-05-19T16:48:56.461Z,52.17
2023-05-19T16:53:09.084Z,51.84
2023-05-19T16:57:21.636Z,51.62
2023-05-19T17:01:34.308Z,52.13
2023-05-19T17:05:46.875Z,51.63
2023-05-19T17:09:59.614Z,52.10
2023-05-19T17:14:12.282Z,52.66
2023-05-19T17:18:24.866Z,53.89
2023-05-19T17:22:37.430Z,54.82
2023-05-19T17:26:49.833Z,55.16
2023-05-19T17:31:02.336Z,55.56
2023-05-19T17:35:14.976Z,55.83
2023-05-19T17:39:27.403Z,55.97
2023-05-19T17:43:41.326Z,56.40
2023-05-19T17:47:53.933Z,57.44
2023-05-19T17:52:07.176Z,57.64
2023-05-19T17:56:22.813Z,58.58
2023-05-19T18:00:35.689Z,58.79
2023-05-19T18:04:48.485Z,58.87
2023-05-19T18:09:02.903Z,59.15
2023-05-19T18:13:15.483Z,59.49
2023-05-19T18:17:27.987Z,58.79
2023-05-19T18:21:40.545Z,58.88
2023-05-19T18:25:53.804Z,59.02
2023-05-19T18:30:07.108Z,59.07
2023-05-19T18:34:19.540Z,59.52
2023-05-19T18:38:31.996Z,60.43
2023-05-19T18:42:44.667Z,61.22
2023-05-19T18:46:57.090Z,61.99
2023-05-19T18:51:10.087Z,63.04
2023-05-19T18:55:23.315Z,63.38
2023-05-19T18:59:35.932Z,64.36
2023-05-19T19:03:50.757Z,65.11
2023-05-19T19:08:05.830Z,65.66
2023-05-19T19:12:19.080Z,62.99
2023-05-19T19:16:32.871Z,62.50
2023-05-19T19:20:45.651Z,62.43
2023-05-19T19:24:58.004Z,62.73
2023-05-19T19:29:10.413Z,62.40
2023-05-19T19:33:22.838Z,63.42
2023-05-19T19:37:35.382Z,64.30
2023-05-19T19:41:47.861Z,65.16
2023-05-19T19:46:01.679Z,66.08
2023-05-19T19:50:14.487Z,66.64
2023-05-19T19:54:27.689Z,64.65
2023-05-19T19:58:43.202Z,65.19
2023-05-19T20:03:05.001Z,66.45
2023-05-19T20:07:21.240Z,64.48
2023-05-19T20:11:33.782Z,64.68
2023-05-19T20:15:47.500Z,64.61
2023-05-19T20:20:02.533Z,65.43
2023-05-19T20:24:14.871Z,65.39
2023-05-19T20:28:27.385Z,65.42
2023-05-19T20:32:40.401Z,66.28
2023-05-19T20:36:52.937Z,66.83
2023-05-19T20:41:05.484Z,66.78
2023-05-19T20:45:18.720Z,68.44
2023-05-19T20:49:31.295Z,70.77
2023-05-19T20:53:43.820Z,71.15
2023-05-19T20:57:56.362Z,72.32
2023-05-19T21:02:08.754Z,72.56
2023-05-19T21:06:21.330Z,73.36
2023-05-19T21:10:34.012Z,74.08
2023-05-19T21:14:46.536Z,72.28
2023-05-19T21:18:59.002Z,72.91
2023-05-19T21:23:11.531Z,74.00
2023-05-19T21:27:24.125Z,74.92
2023-05-19T21:31:37.084Z,74.67
2023-05-19T21:35:49.535Z,73.31
2023-05-19T21:40:02.062Z,73.92
2023-05-19T21:44:14.551Z,74.71
2023-05-19T21:48:26.876Z,74.46
2023-05-19T21:52:39.288Z,74.53
2023-05-19T21:56:51.788Z,75.36
2023-05-19T22:01:04.849Z,75.86
2023-05-19T22:05:17.627Z,75.88
2023-05-19T22:09:30.013Z,76.52
2023-05-19T22:13:42.408Z,76.80
2023-05-19T22:17:54.779Z,76.70
2023-05-19T22:22:13.847Z,75.11
2023-05-19T22:26:27.399Z,76.80
2023-05-19T22:30:41.049Z,75.65
2023-05-19T22:34:53.725Z,75.85
2023-05-19T22:39:06.347Z,75.34
2023-05-19T22:43:18.760Z,74.72
2023-05-19T22:47:31.269Z,73.41
2023-05-19T22:51:43.685Z,73.64
2023-05-19T22:55:56.418Z,73.65
2023-05-19T23:00:10.023Z,72.77
2023-05-19T23:04:22.883Z,72.01
2023-05-19T23:08:35.392Z,72.81
2023-05-19T23:12:47.839Z,72.80
2023-05-19T23:17:00.361Z,71.76
2023-05-19T23:21:12.967Z,71.89
2023-05-19T23:25:25.463Z,71.80
2023-05-19T23:29:38.006Z,73.15
2023-05-19T23:33:50.505Z,73.33
2023-05-19T23:38:04.068Z,74.06
2023-05-19T23:42:16.578Z,74.80
2023-05-19T23:46:29.059Z,74.61
2023-05-19T23:50:41.593Z,75.06
2023-05-19T23:54:53.940Z,77.94
2023-05-19T23:59:06.392Z,78.47
